createdAt,value
2022-12-08T00:02:44.521Z,-0.86
2022-12-08T00:06:39.833Z,-0.88
2022-12-08T00:10:39.615Z,-0.90
2022-12-08T00:13:56.162Z,-0.92
2022-12-08T00:17:23.517Z,-0.94
2022-12-08T00:20:57.935Z,-0.96
2022-12-08T00:24:27.002Z,-0.97
2022-12-08T00:27:54.043Z,-1.00
2022-12-08T00:31:21.891Z,-1.03
2022-12-08T00:34:49.209Z,-1.06
2022-12-08T00:38:16.239Z,-1.09
2022-12-08T00:42:01.266Z,-1.12
2022-12-08T00:45:28.139Z,-1.16
2022-12-08T00:48:55.089Z,-1.21
2022-12-08T00:52:22.467Z,-1.26
2022-12-08T00:55:49.198Z,-1.30
2022-12-08T00:59:16.963Z,-1.35
2022-12-08T01:02:44.076Z,-1.39
2022-12-08T01:06:11.404Z,-1.44
2022-12-08T01:09:38.602Z,-1.48
2022-12-08T01:13:05.411Z,-1.51
2022-12-08T01:16:35.487Z,-1.54
2022-12-08T01:20:03.719Z,-1.59
2022-12-08T01:23:31.289Z,-1.63
2022-12-08T01:26:58.256Z,-1.67
2022-12-08T01:30:25.630Z,-1.70
2022-12-08T01:33:53.398Z,-1.72
2022-12-08T01:37:20.416Z,-1.74
2022-12-08T01:40:47.528Z,-1.75
2022-12-08T01:45:03.887Z,-1.76
2022-12-08T01:48:30.757Z,-1.77
2022-12-08T01:52:04.041Z,-1.77
2022-12-08T01:55:36.396Z,-1.77
2022-12-08T01:59:03.514Z,-1.76
2022-12-08T02:02:34.682Z,-1.74
2022-12-08T02:06:02.231Z,-1.75
2022-12-08T02:09:29.955Z,-1.76
2022-12-08T02:12:59.512Z,-1.77
2022-12-08T02:16:43.313Z,-1.80
2022-12-08T02:20:43.368Z,-1.84
2022-12-08T02:24:18.955Z,-1.86
2022-12-08T02:27:58.357Z,-1.88
2022-12-08T02:31:29.583Z,-1.91
2022-12-08T02:35:03.614Z,-1.92
2022-12-08T02:38:44.116Z,-1.94
2022-12-08T02:42:21.309Z,-1.95
2022-12-08T02:45:53.021Z,-1.95
2022-12-08T02:49:19.908Z,-1.97
2022-12-08T02:52:48.247Z,-1.99
2022-12-08T02:56:29.534Z,-2.01
2022-12-08T03:00:15.779Z,-2.03
2022-12-08T03:03:52.194Z,-2.06
2022-12-08T03:07:26.780Z,-2.07
2022-12-08T03:10:59.506Z,-2.08
2022-12-08T03:14:27.131Z,-2.07
2022-12-08T03:17:59.443Z,-2.06
2022-12-08T03:21:26.927Z,-2.04
2022-12-08T03:24:55.187Z,-2.03
2022-12-08T03:28:22.643Z,-2.04
2022-12-08T03:31:55.083Z,-2.06
2022-12-08T03:35:27.267Z,-2.09
2022-12-08T03:38:55.255Z,-2.13
2022-12-08T03:42:22.103Z,-2.18
2022-12-08T03:45:48.811Z,-2.23
2022-12-08T03:49:16.493Z,-2.28
2022-12-08T03:52:43.675Z,-2.32
2022-12-08T03:56:20.790Z,-2.35
2022-12-08T03:59:47.525Z,-2.35
2022-12-08T04:03:14.748Z,-2.34
2022-12-08T04:06:41.855Z,-2.31
2022-12-08T04:10:10.868Z,-2.29
2022-12-08T04:13:38.496Z,-2.26
2022-12-08T04:17:05.478Z,-2.22
2022-12-08T04:20:32.377Z,-2.18
2022-12-08T04:24:01.403Z,-2.13
2022-12-08T04:27:27.235Z,-2.10
2022-12-08T04:30:54.090Z,-2.09
2022-12-08T04:34:21.468Z,-2.09
2022-12-08T04:37:48.233Z,-2.08
2022-12-08T04:41:15.434Z,-2.08
2022-12-08T04:44:42.264Z,-2.07
2022-12-08T04:48:10.152Z,-2.07
2022-12-08T04:51:36.885Z,-2.06
2022-12-08T04:55:04.498Z,-2.06
2022-12-08T04:58:32.049Z,-2.05
2022-12-08T05:01:59.370Z,-2.03
2022-12-08T05:09:36.310Z,-2.01
2022-12-08T05:13:03.569Z,-1.98
2022-12-08T05:16:30.773Z,-1.97
2022-12-08T05:19:57.966Z,-1.94
2022-12-08T05:23:24.700Z,-1.91
2022-12-08T05:26:51.498Z,-1.89
2022-12-08T05:30:18.739Z,-1.85
2022-12-08T05:33:46.395Z,-1.80
2022-12-08T05:37:13.383Z,-1.73
2022-12-08T05:40:43.408Z,-1.66
2022-12-08T05:44:10.421Z,-1.55
2022-12-08T05:47:37.109Z,-1.46
2022-12-08T05:51:05.070Z,-1.35
2022-12-08T05:54:31.866Z,-1.26
2022-12-08T05:58:01.944Z,-1.18
2022-12-08T06:01:34.327Z,-1.09
2022-12-08T06:05:01.611Z,-1.01
2022-12-08T06:08:28.665Z,-0.93
2022-12-08T06:11:55.366Z,-0.87
2022-12-08T06:15:22.836Z,-0.81
2022-12-08T06:18:50.174Z,-0.77
2022-12-08T06:22:16.872Z,-0.70
2022-12-08T06:25:43.714Z,-0.63
2022-12-08T06:29:10.600Z,-0.56
2022-12-08T06:32:37.380Z,-0.49
2022-12-08T06:36:04.229Z,-0.44
2022-12-08T06:39:31.281Z,-0.39
2022-12-08T06:42:58.084Z,-0.35
2022-12-08T06:46:25.031Z,-0.31
2022-12-08T06:49:51.893Z,-0.26
2022-12-08T06:53:18.799Z,-0.22
2022-12-08T06:56:45.689Z,-0.18
2022-12-08T07:00:15.838Z,-0.13
2022-12-08T07:03:43.673Z,-0.09
2022-12-08T07:07:10.480Z,-0.04
2022-12-08T07:10:37.761Z,-0.00
2022-12-08T07:14:04.409Z,0.05
2022-12-08T07:17:31.137Z,0.09
2022-12-08T07:20:58.286Z,0.13
2022-12-08T07:24:25.123Z,0.17
2022-12-08T07:27:53.448Z,0.20
2022-12-08T07:31:23.389Z,0.24
2022-12-08T07:34:50.210Z,0.29
2022-12-08T07:38:16.880Z,0.34
2022-12-08T07:41:43.579Z,0.39
2022-12-08T07:45:12.664Z,0.43
2022-12-08T07:48:39.290Z,0.48
2022-12-08T07:52:06.044Z,0.52
2022-12-08T07:55:32.974Z,0.56
2022-12-08T07:58:59.876Z,0.60
2022-12-08T08:02:26.979Z,0.64
2022-12-08T08:05:54.733Z,0.67
2022-12-08T08:09:21.525Z,0.71
2022-12-08T08:12:48.721Z,0.75
2022-12-08T08:16:15.633Z,0.78
2022-12-08T08:19:42.519Z,0.79
2022-12-08T08:23:09.356Z,0.81
2022-12-08T08:26:35.977Z,0.82
2022-12-08T08:30:03.899Z,0.86
2022-12-08T08:33:31.021Z,0.89
2022-12-08T08:36:58.025Z,0.92
2022-12-08T08:40:24.895Z,0.95
2022-12-08T08:43:51.626Z,0.96
2022-12-08T08:47:18.846Z,0.98
2022-12-08T08:50:45.693Z,1.01
2022-12-08T08:54:13.172Z,1.08
2022-12-08T08:57:39.834Z,1.16
2022-12-08T09:01:06.937Z,1.25
2022-12-08T09:04:33.618Z,1.35
2022-12-08T09:08:00.802Z,1.51
2022-12-08T09:11:27.426Z,1.63
2022-12-08T09:14:54.066Z,1.73
2022-12-08T09:18:21.145Z,1.85
2022-12-08T09:21:47.831Z,1.97
2022-12-08T09:25:14.617Z,2.10
2022-12-08T09:28:46.361Z,2.23
2022-12-08T09:32:13.352Z,2.33
2022-12-08T09:35:40.043Z,2.41
2022-12-08T09:39:07.021Z,2.53
2022-12-08T09:42:43.464Z,2.66
2022-12-08T09:46:14.452Z,2.76
2022-12-08T09:49:44.559Z,2.78
2022-12-08T09:53:15.911Z,2.79
2022-12-08T09:56:42.810Z,2.85
2022-12-08T10:00:15.417Z,2.96
2022-12-08T10:25:54.564Z,3.22
2022-12-08T10:29:21.824Z,3.21
2022-12-08T10:32:51.977Z,3.17
2022-12-08T10:36:18.983Z,3.07
2022-12-08T10:39:46.979Z,2.93
2022-12-08T10:43:19.140Z,2.81
2022-12-08T10:46:45.879Z,2.69
2022-12-08T10:50:30.675Z,2.62
2022-12-08T10:53:57.680Z,2.56
2022-12-08T10:57:25.461Z,2.52
2022-12-08T11:00:54.699Z,2.49
2022-12-08T11:04:23.534Z,2.50
2022-12-08T11:07:53.671Z,2.54
2022-12-08T11:11:27.590Z,2.62
2022-12-08T11:15:03.317Z,2.72
2022-12-08T11:18:41.031Z,2.81
2022-12-08T11:22:25.022Z,2.92
2022-12-08T11:25:55.370Z,3.00
2022-12-08T11:29:22.701Z,3.10
2022-12-08T11:32:52.153Z,3.20
2022-12-08T11:36:21.677Z,3.32
2022-12-08T11:39:52.874Z,3.44
2022-12-08T11:53:19.894Z,3.61
2022-12-08T11:56:49.885Z,3.63
2022-12-08T12:00:18.213Z,3.65
2022-12-08T12:03:51.812Z,3.68
2022-12-08T12:07:43.119Z,3.68
2022-12-08T12:11:38.046Z,3.68
2022-12-08T12:15:36.349Z,3.69
2022-12-08T12:19:06.541Z,3.67
2022-12-08T12:22:36.604Z,3.65
2022-12-08T12:26:06.860Z,3.61
2022-12-08T12:29:36.704Z,3.58
2022-12-08T12:33:08.701Z,3.58
2022-12-08T12:36:48.728Z,3.60
2022-12-08T12:40:22.129Z,3.63
2022-12-08T12:44:35.905Z,3.69
2022-12-08T12:48:24.614Z,3.84
2022-12-08T12:51:56.827Z,3.98
2022-12-08T12:55:51.900Z,4.09
2022-12-08T12:59:50.086Z,4.18
2022-12-08T13:03:20.148Z,4.21
2022-12-08T13:06:49.613Z,4.21
2022-12-08T13:10:21.393Z,4.17
2022-12-08T13:14:01.269Z,4.12
2022-12-08T13:17:31.404Z,4.09
2022-12-08T13:21:06.801Z,4.06
2022-12-08T13:24:37.715Z,4.00
2022-12-08T13:28:14.862Z,3.96
2022-12-08T13:31:48.357Z,3.91
2022-12-08T13:35:18.032Z,3.87
2022-12-08T13:38:48.280Z,3.84
2022-12-08T13:42:24.918Z,3.79
2022-12-08T13:57:30.674Z,3.60
2022-12-08T14:01:08.198Z,3.56
2022-12-08T14:05:09.125Z,3.50
2022-12-08T14:08:57.450Z,3.46
2022-12-08T14:12:22.718Z,3.41
2022-12-08T14:15:49.849Z,3.37
2022-12-08T14:19:22.266Z,3.30
2022-12-08T14:22:50.409Z,3.22
2022-12-08T14:26:17.952Z,3.14
2022-12-08T14:29:47.535Z,3.04
2022-12-08T14:33:18.197Z,2.95
2022-12-08T14:36:44.973Z,2.86
2022-12-08T14:40:24.279Z,2.77
2022-12-08T14:44:01.675Z,2.67
2022-12-08T14:47:32.088Z,2.58
2022-12-08T14:51:07.023Z,2.50
2022-12-08T14:54:33.862Z,2.42
2022-12-08T14:58:00.828Z,2.36
2022-12-08T15:01:27.818Z,2.30
2022-12-08T15:05:00.980Z,2.27
2022-12-08T15:08:27.992Z,2.24
2022-12-08T15:12:03.442Z,2.22
2022-12-08T15:15:31.557Z,2.22
2022-12-08T15:19:19.401Z,2.25
2022-12-08T15:22:45.976Z,2.28
2022-12-08T15:26:20.185Z,2.31
2022-12-08T15:29:47.156Z,2.35
2022-12-08T15:33:14.328Z,2.40
2022-12-08T15:36:42.959Z,2.41
2022-12-08T15:40:16.269Z,2.42
2022-12-08T15:43:43.468Z,2.41
2022-12-08T15:47:16.485Z,2.40
2022-12-08T15:50:43.164Z,2.35
2022-12-08T15:54:09.962Z,2.32
2022-12-08T15:58:30.762Z,2.33
2022-12-08T16:01:23.645Z,2.33
2022-12-08T16:08:49.476Z,2.36
2022-12-08T16:16:32.064Z,2.42
2022-12-08T16:19:59.893Z,2.44
2022-12-08T16:23:42.436Z,2.46
2022-12-08T16:31:01.210Z,2.51
2022-12-08T16:34:27.953Z,2.53
2022-12-08T16:37:54.928Z,2.54
2022-12-08T16:41:39.905Z,2.56
2022-12-08T16:45:09.426Z,2.56
2022-12-08T16:48:36.238Z,2.57
2022-12-08T16:52:02.948Z,2.56
2022-12-08T16:55:30.246Z,2.56
2022-12-08T16:58:58.317Z,2.55
2022-12-08T17:02:25.275Z,2.56
2022-12-08T17:05:52.148Z,2.56
2022-12-08T17:09:19.006Z,2.56
2022-12-08T17:12:45.819Z,2.56
2022-12-08T17:16:15.727Z,2.56
2022-12-08T17:19:42.809Z,2.56
2022-12-08T17:23:09.461Z,2.56
2022-12-08T17:27:06.373Z,2.55
2022-12-08T17:30:33.299Z,2.53
2022-12-08T17:34:00.865Z,2.50
2022-12-08T17:47:30.126Z,2.22
2022-12-08T18:01:07.960Z,2.15
2022-12-08T18:04:34.962Z,2.14
2022-12-08T18:08:02.023Z,2.17
2022-12-08T18:11:30.497Z,2.19
2022-12-08T18:14:57.230Z,2.22
2022-12-08T18:18:23.939Z,2.24
2022-12-08T18:21:50.825Z,2.27
2022-12-08T18:25:17.531Z,2.30
2022-12-08T18:28:44.675Z,2.33
2022-12-08T18:32:11.597Z,2.36
2022-12-08T18:35:41.085Z,2.39
2022-12-08T18:39:10.958Z,2.41
2022-12-08T18:42:38.058Z,2.42
2022-12-08T18:46:07.748Z,2.43
2022-12-08T18:49:33.029Z,2.44
2022-12-08T18:52:59.882Z,2.44
2022-12-08T18:56:29.413Z,2.44
2022-12-08T18:59:56.565Z,2.43
2022-12-08T19:03:23.953Z,2.45
2022-12-08T19:06:52.114Z,2.45
2022-12-08T19:10:19.371Z,2.45
2022-12-08T19:13:46.599Z,2.45
2022-12-08T19:17:13.422Z,2.42
2022-12-08T19:20:40.325Z,2.39
2022-12-08T19:24:08.843Z,2.36
2022-12-08T19:27:35.585Z,2.33
2022-12-08T19:31:05.556Z,2.30
2022-12-08T19:34:32.584Z,2.29
2022-12-08T19:37:59.602Z,2.27
2022-12-08T19:41:44.843Z,2.26
2022-12-08T19:45:17.331Z,2.25
2022-12-08T19:48:44.586Z,2.23
2022-12-08T19:52:11.277Z,2.21
2022-12-08T19:55:39.092Z,2.19
2022-12-08T19:59:05.819Z,2.18
2022-12-08T20:02:33.007Z,2.16
2022-12-08T20:06:00.176Z,2.14
2022-12-08T20:09:27.325Z,2.11
2022-12-08T20:13:12.328Z,2.11
2022-12-08T20:16:41.222Z,2.11
2022-12-08T20:20:11.064Z,2.12
2022-12-08T20:23:38.500Z,2.10
2022-12-08T20:27:05.205Z,2.09
2022-12-08T20:30:32.347Z,2.08
2022-12-08T20:33:59.088Z,2.06
2022-12-08T20:37:25.769Z,2.04
2022-12-08T20:40:52.440Z,2.02
2022-12-08T20:44:19.320Z,2.01
2022-12-08T20:47:46.003Z,2.00
2022-12-08T20:51:15.529Z,1.99
2022-12-08T20:54:43.407Z,1.99
2022-12-08T20:58:10.283Z,1.98
2022-12-08T21:01:37.137Z,1.97
2022-12-08T21:05:04.859Z,1.96
2022-12-08T21:08:32.583Z,1.94
2022-12-08T21:11:59.537Z,1.91
2022-12-08T21:15:26.308Z,1.88
2022-12-08T21:18:53.290Z,1.86
2022-12-08T21:22:21.124Z,1.84
2022-12-08T21:25:49.392Z,1.82
2022-12-08T21:29:17.281Z,1.80
2022-12-08T21:32:44.463Z,1.78
2022-12-08T21:36:14.704Z,1.77
2022-12-08T21:39:42.179Z,1.75
2022-12-08T21:43:09.093Z,1.75
2022-12-08T21:46:36.016Z,1.74
2022-12-08T21:50:03.307Z,1.74
2022-12-08T21:53:30.527Z,1.73
2022-12-08T21:56:57.205Z,1.73
2022-12-08T22:00:26.067Z,1.73
2022-12-08T22:03:53.771Z,1.73
2022-12-08T22:07:21.034Z,1.72
2022-12-08T22:10:50.862Z,1.72
2022-12-08T22:14:17.853Z,1.71
2022-12-08T22:17:45.637Z,1.71
2022-12-08T22:21:17.330Z,1.71
2022-12-08T22:24:44.784Z,1.71
2022-12-08T22:28:11.804Z,1.68
2022-12-08T22:31:38.787Z,1.66
2022-12-08T22:35:06.049Z,1.65
2022-12-08T22:38:33.431Z,1.64
2022-12-08T22:42:00.707Z,1.63
2022-12-08T22:45:27.579Z,1.63
2022-12-08T22:48:55.426Z,1.62
2022-12-08T22:52:22.464Z,1.62
2022-12-08T22:55:49.940Z,1.63
2022-12-08T22:59:17.016Z,1.63
2022-12-08T23:02:44.141Z,1.64
2022-12-08T23:06:15.838Z,1.63
2022-12-08T23:09:43.664Z,1.63
2022-12-08T23:13:10.770Z,1.63
2022-12-08T23:16:38.089Z,1.62
2022-12-08T23:20:05.919Z,1.60
2022-12-08T23:23:33.036Z,1.61
2022-12-08T23:27:00.720Z,1.60
2022-12-08T23:30:28.428Z,1.60
2022-12-08T23:33:55.618Z,1.60
2022-12-08T23:37:22.463Z,1.60
2022-12-08T23:40:49.368Z,1.58
2022-12-08T23:44:16.470Z,1.57
2022-12-08T23:47:43.346Z,1.58
2022-12-08T23:51:10.552Z,1.59
2022-12-08T23:54:37.326Z,1.60
2022-12-08T23:58:04.197Z,1.59
